Fantasia — ICJY — position and weather

sailwx.info

Track history (hours):
 
Tides and Currents Weather Stations Pressure Air Temp Water Temp Dewpoint Dewpoint Depression Visibility Wind Speed Wind Dir Waves Ship Positions

Fantasia

Last reported at 2017-May-29 17:52 UTC. Time now 2017-May-30 13:05 UTC.
Position N 35°58' W 005°35'.

Length 183 m; draft 9.9 m.

Type: Tanker. MMSI: 247279600.

Date/timePositionNaut miles runAvg speedWind from/ knotsBaromVisibWave heightAir tempDewpointWater temp
2017-May-29 17:52N 35°58' W 005°35'411.1
2017-May-29 17:30N 35°60' W 005°30'510.6
2017-May-29 17:00N 36°02' W 005°24'611.8
2017-May-29 16:30N 36°08' W 005°24'2 4.3
2017-May-29 16:00N 36°11' W 005°24'0 0.0
2017-May-28 07:35N 36°11' W 005°24'0 0.0
2017-May-28 07:30N 36°11' W 005°24'0 0.2
2017-May-28 06:16N 36°10' W 005°24'0 0.1
2017-May-28 05:55N 36°10' W 005°24'0 0.0
2017-May-28 05:28N 36°10' W 005°24'0 0.2
2017-May-28 04:55N 36°10' W 005°24'0 0.0
2017-May-28 04:25N 36°10' W 005°24'0 0.0
2017-May-28 03:55N 36°10' W 005°24'0 0.0
2017-May-28 03:25N 36°10' W 005°24'0 0.0
2017-May-28 02:58N 36°10' W 005°24'0 0.0
2017-May-28 02:28N 36°10' W 005°24'0 0.1
2017-May-28 01:58N 36°10' W 005°24'0 0.1
2017-May-28 01:25N 36°10' W 005°24'0 0.2
2017-May-28 00:58N 36°10' W 005°24'0 0.1
2017-May-28 00:22N 36°10' W 005°24'0 0.0
2017-May-27 23:58N 36°10' W 005°24'0 0.1
2017-May-27 23:25N 36°10' W 005°24'0 0.2
2017-May-27 22:58N 36°10' W 005°24'0 0.0
2017-May-27 22:25N 36°10' W 005°24'0 0.0
2017-May-27 21:58N 36°10' W 005°24'0 0.0
2017-May-27 21:28N 36°10' W 005°24'0 0.1
2017-May-27 20:49N 36°10' W 005°24'0 0.0
2017-May-27 16:49N 36°10' W 005°24'0 0.2
2017-May-27 16:25N 36°10' W 005°24'0 0.0
2017-May-27 15:52N 36°10' W 005°24'0 0.0
2017-May-27 15:28N 36°10' W 005°24'0 0.1
2017-May-27 14:58N 36°10' W 005°24'0 0.0
2017-May-27 14:25N 36°10' W 005°24'0 0.0
2017-May-27 13:28N 36°10' W 005°24'0 0.1
2017-May-27 11:22N 36°10' W 005°24'0 0.0
2017-May-27 04:01N 36°10' W 005°24'0 0.2
2017-May-27 03:49N 36°10' W 005°24'0 0.1
2017-May-27 03:28N 36°10' W 005°24'0 0.1
2017-May-27 02:52N 36°10' W 005°24'0 0.0
2017-May-27 02:28N 36°10' W 005°24'0 0.1
2017-May-27 01:55N 36°10' W 005°24'0 0.2
2017-May-27 01:28N 36°10' W 005°24'0 0.1
2017-May-27 00:58N 36°10' W 005°24'0 0.1
2017-May-27 00:28N 36°10' W 005°24'0 0.1
2017-May-26 23:58N 36°10' W 005°24'0 0.1
2017-May-26 23:28N 36°10' W 005°24'0 0.1
2017-May-26 22:58N 36°10' W 005°24'0 0.2
2017-May-26 22:28N 36°10' W 005°24'0 0.1
2017-May-26 21:55N 36°10' W 005°24'0 0.1
2017-May-26 21:22N 36°10' W 005°24'0 0.0
2017-May-26 18:01N 36°10' W 005°24'0 0.7
2017-May-26 18:00N 36°10' W 005°24'2 3.2
2017-May-26 17:30N 36°09' W 005°24'2 4.8
2017-May-26 17:00N 36°06' W 005°24'4 8.2
2017-May-26 16:30N 36°02' W 005°23'4 8.6
2017-May-26 16:00N 35°59' W 005°26'611.2
2017-May-26 15:30N 35°57' W 005°32'711.5
2017-May-26 14:56N 35°56' W 005°40'510.0
2017-May-26 14:28N 35°55' W 005°46'55413.1
2017-May-24 20:04N 29°38' W 013°48'3413.5
2017-May-24 17:34N 29°10' W 014°11'113.2
2017-May-24 17:29N 29°09' W 014°12'3313.0
2017-May-24 14:59N 28°43' W 014°33'612.7
2017-May-24 14:29N 28°37' W 014°37'1312.8
2017-May-24 13:27N 28°26' W 014°45'613.1
2017-May-24 13:00N 28°21' W 014°48'713.4
2017-May-24 12:30N 28°15' W 014°51'713.4
2017-May-24 12:00N 28°09' W 014°53'713.6
2017-May-24 11:30N 28°02' W 014°56'713.6
2017-May-24 11:00N 27°56' W 014°59'713.6
2017-May-24 10:30N 27°50' W 015°02'713.7
2017-May-24 10:00N 27°43' W 015°04'713.5
2017-May-24 09:30N 27°37' W 015°07'612.9
2017-May-24 09:00N 27°31' W 015°11'  
Track history (hours):
 
Tides and Currents Weather Stations Pressure Air Temp Water Temp Dewpoint Dewpoint Depression Visibility Wind Speed Wind Dir Waves Ship Positions

Fantasia

Last reported at 2017-May-29 17:52 UTC. Time now 2017-May-30 13:05 UTC.
Position N 35°58' W 005°35'.

Length 183 m; draft 9.9 m.

Type: Tanker. MMSI: 247279600.

Date/timePositionNaut miles runAvg speedWind from/ knotsBaromVisibWave heightAir tempDewpointWater temp
2017-May-29 17:52N 35°58' W 005°35'411.1
2017-May-29 17:30N 35°60' W 005°30'510.6
2017-May-29 17:00N 36°02' W 005°24'611.8
2017-May-29 16:30N 36°08' W 005°24'2 4.3
2017-May-29 16:00N 36°11' W 005°24'0 0.0
2017-May-28 07:35N 36°11' W 005°24'0 0.0
2017-May-28 07:30N 36°11' W 005°24'0 0.2
2017-May-28 06:16N 36°10' W 005°24'0 0.1
2017-May-28 05:55N 36°10' W 005°24'0 0.0
2017-May-28 05:28N 36°10' W 005°24'0 0.2
2017-May-28 04:55N 36°10' W 005°24'0 0.0
2017-May-28 04:25N 36°10' W 005°24'0 0.0
2017-May-28 03:55N 36°10' W 005°24'0 0.0
2017-May-28 03:25N 36°10' W 005°24'0 0.0
2017-May-28 02:58N 36°10' W 005°24'0 0.0
2017-May-28 02:28N 36°10' W 005°24'0 0.1
2017-May-28 01:58N 36°10' W 005°24'0 0.1
2017-May-28 01:25N 36°10' W 005°24'0 0.2
2017-May-28 00:58N 36°10' W 005°24'0 0.1
2017-May-28 00:22N 36°10' W 005°24'0 0.0
2017-May-27 23:58N 36°10' W 005°24'0 0.1
2017-May-27 23:25N 36°10' W 005°24'0 0.2
2017-May-27 22:58N 36°10' W 005°24'0 0.0
2017-May-27 22:25N 36°10' W 005°24'0 0.0
2017-May-27 21:58N 36°10' W 005°24'0 0.0
2017-May-27 21:28N 36°10' W 005°24'0 0.1
2017-May-27 20:49N 36°10' W 005°24'0 0.0
2017-May-27 16:49N 36°10' W 005°24'0 0.2
2017-May-27 16:25N 36°10' W 005°24'0 0.0
2017-May-27 15:52N 36°10' W 005°24'0 0.0
2017-May-27 15:28N 36°10' W 005°24'0 0.1
2017-May-27 14:58N 36°10' W 005°24'0 0.0
2017-May-27 14:25N 36°10' W 005°24'0 0.0
2017-May-27 13:28N 36°10' W 005°24'0 0.1
2017-May-27 11:22N 36°10' W 005°24'0 0.0
2017-May-27 04:01N 36°10' W 005°24'0 0.2
2017-May-27 03:49N 36°10' W 005°24'0 0.1
2017-May-27 03:28N 36°10' W 005°24'0 0.1
2017-May-27 02:52N 36°10' W 005°24'0 0.0
2017-May-27 02:28N 36°10' W 005°24'0 0.1
2017-May-27 01:55N 36°10' W 005°24'0 0.2
2017-May-27 01:28N 36°10' W 005°24'0 0.1
2017-May-27 00:58N 36°10' W 005°24'0 0.1
2017-May-27 00:28N 36°10' W 005°24'0 0.1
2017-May-26 23:58N 36°10' W 005°24'0 0.1
2017-May-26 23:28N 36°10' W 005°24'0 0.1
2017-May-26 22:58N 36°10' W 005°24'0 0.2
2017-May-26 22:28N 36°10' W 005°24'0 0.1
2017-May-26 21:55N 36°10' W 005°24'0 0.1
2017-May-26 21:22N 36°10' W 005°24'0 0.0
2017-May-26 18:01N 36°10' W 005°24'0 0.7
2017-May-26 18:00N 36°10' W 005°24'2 3.2
2017-May-26 17:30N 36°09' W 005°24'2 4.8
2017-May-26 17:00N 36°06' W 005°24'4 8.2
2017-May-26 16:30N 36°02' W 005°23'4 8.6
2017-May-26 16:00N 35°59' W 005°26'611.2
2017-May-26 15:30N 35°57' W 005°32'711.5
2017-May-26 14:56N 35°56' W 005°40'510.0
2017-May-26 14:28N 35°55' W 005°46'55413.1
2017-May-24 20:04N 29°38' W 013°48'3413.5
2017-May-24 17:34N 29°10' W 014°11'113.2
2017-May-24 17:29N 29°09' W 014°12'3313.0
2017-May-24 14:59N 28°43' W 014°33'612.7
2017-May-24 14:29N 28°37' W 014°37'1312.8
2017-May-24 13:27N 28°26' W 014°45'613.1
2017-May-24 13:00N 28°21' W 014°48'713.4
2017-May-24 12:30N 28°15' W 014°51'713.4
2017-May-24 12:00N 28°09' W 014°53'713.6
2017-May-24 11:30N 28°02' W 014°56'713.6
2017-May-24 11:00N 27°56' W 014°59'713.6
2017-May-24 10:30N 27°50' W 015°02'713.7
2017-May-24 10:00N 27°43' W 015°04'713.5
2017-May-24 09:30N 27°37' W 015°07'612.9
2017-May-24 09:00N 27°31' W 015°11'  

Dump ship's entire track history